Time;durP1;ratioP1;P1;durP2;ratioP2;P2;SDS_P1;SDS_P2;PMS_P1;PMS_P2;Temp;Humidity;BMP_temperature;BMP_pressure;BME280_temperature;BME280_humidity;BME280_pressure;Samples;Min_cycle;Max_cycle;Signal;HPM_P1;HPM_P2
2023/03/23 00:02:00;;;;;;;56.73;27.50;;;;;;;6.39;81.49;100372.59;1711867;82;21143;-57
2023/03/23 00:04:29;;;;;;;55.03;27.32;;;;;;;6.38;81.58;100370.90;1712042;82;21147;-57
2023/03/23 00:07:00;;;;;;;51.63;27.85;;;;;;;6.37;81.65;100369.20;1743596;81;21120;-57
2023/03/23 00:09:29;;;;;;;52.48;28.50;;;;;;;6.35;81.70;100370.73;1712171;82;21124;-57
2023/03/23 00:12:04;;;;;;;55.75;27.82;;;;;;;6.34;81.78;100370.90;1743416;81;21143;-57
2023/03/23 00:14:30;;;;;;;55.33;27.87;;;;;;;6.33;81.81;100363.76;1711937;82;21092;-59
2023/03/23 00:16:59;;;;;;;57.88;27.77;;;;;;;6.33;81.84;100363.76;1724061;80;21135;-58
2023/03/23 00:19:27;;;;;;;51.08;26.80;;;;;;;6.32;81.82;100360.19;1770777;80;21115;-57
2023/03/23 00:21:55;;;;;;;51.33;26.97;;;;;;;6.32;81.82;100355.26;1770835;80;21198;-58
2023/03/23 00:24:23;;;;;;;49.45;25.82;;;;;;;6.33;81.89;100356.95;1770767;80;21181;-58
2023/03/23 00:26:52;;;;;;;51.55;27.48;;;;;;;6.31;81.89;100338.59;1770890;80;21178;-58
2023/03/23 00:29:23;;;;;;;49.48;27.35;;;;;;;6.30;81.87;100334.17;1743471;81;21194;-58
2023/03/23 00:31:56;;;;;;;52.75;27.10;;;;;;;6.28;81.94;100332.13;1745929;82;21151;-58
2023/03/23 00:34:32;;;;;;;54.15;27.37;;;;;;;6.24;81.90;100336.22;1721763;82;21111;-58
2023/03/23 00:36:56;;;;;;;54.25;27.48;;;;;;;6.21;82.04;100333.33;1721362;82;21087;-58
2023/03/23 00:39:26;;;;;;;52.43;26.50;;;;;;;6.21;82.22;100342.85;1721496;82;21608;-58
2023/03/23 00:42:00;;;;;;;50.85;27.48;;;;;;;6.18;82.16;100335.03;1721327;82;21555;-57
2023/03/23 00:44:25;;;;;;;51.68;27.93;;;;;;;6.18;82.30;100328.74;1721574;82;21140;-57
2023/03/23 00:46:56;;;;;;;52.48;27.22;;;;;;;6.18;82.51;100329.59;1753564;82;21566;-58
2023/03/23 00:49:25;;;;;;;52.20;27.87;;;;;;;6.17;82.55;100324.33;1683958;84;21127;-58
2023/03/23 00:51:55;;;;;;;51.73;27.30;;;;;;;6.14;82.56;100329.59;1683785;85;21139;-58
2023/03/23 00:54:26;;;;;;;53.65;28.30;;;;;;;6.14;82.70;100326.02;1718526;83;21152;-58
2023/03/23 00:56:56;;;;;;;50.88;27.48;;;;;;;6.13;82.71;100318.37;1694005;83;21183;-57
2023/03/23 00:59:24;;;;;;;52.95;28.57;;;;;;;6.15;82.71;100317.69;1694158;83;21131;-58
2023/03/23 01:01:52;;;;;;;56.15;30.17;;;;;;;6.14;82.63;100317.86;1734870;83;21200;-58
2023/03/23 01:04:22;;;;;;;54.42;30.85;;;;;;;6.12;82.57;100319.91;1693128;83;21147;-58
2023/03/23 01:06:51;;;;;;;49.88;27.00;;;;;;;6.10;82.47;100312.42;1632072;86;21143;-60
2023/03/23 01:09:23;;;;;;;57.38;28.05;;;;;;;6.07;82.45;100312.26;1732054;83;21179;-58
2023/03/23 01:11:52;;;;;;;54.05;28.52;;;;;;;6.04;82.42;100320.25;1732200;82;21127;-59
2023/03/23 01:14:20;;;;;;;52.55;27.60;;;;;;;6.02;82.60;100316.84;1731068;80;21104;-58
2023/03/23 01:16:50;;;;;;;49.95;26.50;;;;;;;6.00;82.62;100322.13;1765776;80;21150;-57
2023/03/23 01:19:19;;;;;;;57.05;27.67;;;;;;;5.95;82.69;100323.98;1765612;80;21205;-58
2023/03/23 01:21:49;;;;;;;50.83;27.45;;;;;;;5.94;82.76;100323.65;1785030;80;21597;-57
2023/03/23 01:24:18;;;;;;;50.73;27.65;;;;;;;5.92;82.86;100318.89;1784957;79;21605;-59
2023/03/23 01:26:46;;;;;;;50.17;26.70;;;;;;;5.92;83.01;100317.53;1753433;81;21111;-58
2023/03/23 01:29:16;;;;;;;48.28;26.48;;;;;;;5.94;83.17;100314.13;1703777;82;21119;-59
2023/03/23 01:31:45;;;;;;;50.78;26.12;;;;;;;5.98;83.26;100310.56;1722725;82;21201;-57
2023/03/23 01:34:13;;;;;;;52.83;24.67;;;;;;;5.97;83.15;100311.07;1713769;82;21570;-58
2023/03/23 01:36:43;;;;;;;48.35;25.15;;;;;;;5.95;83.13;100308.19;1719130;82;21115;-57
2023/03/23 01:39:12;;;;;;;46.05;24.95;;;;;;;5.94;83.19;100312.77;1688762;85;21174;-58
2023/03/23 01:41:42;;;;;;;44.42;24.82;;;;;;;5.96;83.28;100313.45;1688996;85;21139;-58
2023/03/23 01:44:24;;;;;;;48.95;25.45;;;;;;;5.96;83.30;100312.09;1664556;86;21219;-58
2023/03/23 01:46:57;;;;;;;48.40;25.12;;;;;;;5.97;83.25;100308.36;1664840;85;21118;-58
2023/03/23 01:49:32;;;;;;;49.90;26.93;;;;;;;5.97;83.40;100311.58;1642703;86;21122;-58
2023/03/23 01:52:08;;;;;;;50.38;25.68;;;;;;;5.96;83.49;100309.38;1642098;86;21190;-57
2023/03/23 01:54:40;;;;;;;48.13;25.23;;;;;;;5.97;83.50;100305.63;1664550;86;21161;-58
2023/03/23 01:57:13;;;;;;;48.05;24.63;;;;;;;5.97;83.41;100311.07;1664473;85;21616;-58
2023/03/23 01:59:44;;;;;;;47.08;25.27;;;;;;;5.97;83.45;100306.14;1664537;86;21138;-58
2023/03/23 02:02:28;;;;;;;47.75;25.88;;;;;;;5.97;83.48;100306.14;1664757;86;21664;-58
2023/03/23 02:05:02;;;;;;;44.23;24.90;;;;;;;5.97;83.50;100307.50;1664775;86;21134;-58
2023/03/23 02:07:31;;;;;;;47.10;25.15;;;;;;;5.97;83.53;100307.50;1664512;86;21581;-57
2023/03/23 02:10:00;;;;;;;44.18;24.07;;;;;;;5.93;83.50;100298.84;1682560;80;21155;-57
2023/03/23 02:12:31;;;;;;;44.85;24.05;;;;;;;5.92;83.57;100298.50;1743077;82;22222;-58
2023/03/23 02:15:04;;;;;;;47.23;24.85;;;;;;;5.93;83.58;100300.70;1714426;82;21363;-59
2023/03/23 02:18:01;;;;;;;43.98;22.40;;;;;;;5.90;83.61;100292.89;1688812;85;21680;-59
2023/03/23 02:20:45;;;;;;;47.80;23.73;;;;;;;5.88;83.75;100297.11;1666336;85;21155;-57
2023/03/23 02:23:36;;;;;;;43.50;23.12;;;;;;;5.87;83.88;100298.64;1586488;90;21588;-58
2023/03/23 02:26:36;;;;;;;45.12;23.15;;;;;;;5.86;84.10;100297.78;1586348;89;21153;-58
2023/03/23 02:29:33;;;;;;;46.65;23.35;;;;;;;5.85;84.22;100300.64;1586754;89;21536;-58
2023/03/23 02:32:46;;;;;;;43.92;22.73;;;;;;;5.88;84.35;100303.91;1567495;89;21478;-58
2023/03/23 02:35:20;;;;;;;41.98;22.00;;;;;;;5.87;84.25;100303.56;1569078;90;21073;-57
2023/03/23 02:37:58;;;;;;;43.20;22.62;;;;;;;5.87;84.35;100298.64;1568345;90;21060;-58
2023/03/23 02:40:32;;;;;;;44.65;22.73;;;;;;;5.90;84.43;100299.69;1588233;89;22155;-57
2023/03/23 02:43:04;;;;;;;43.15;22.95;;;;;;;5.90;84.55;100297.81;1610955;87;21080;-59
2023/03/23 02:45:32;;;;;;;41.18;23.25;;;;;;;5.93;84.61;100290.67;1594225;90;21079;-58
2023/03/23 02:48:04;;;;;;;49.15;26.07;;;;;;;5.95;84.58;100293.23;1535055;90;21135;-60
2023/03/23 02:50:33;;;;;;;47.38;26.23;;;;;;;5.97;84.58;100293.91;1591569;89;21061;-59
2023/03/23 02:53:04;;;;;;;48.83;26.97;;;;;;;5.98;84.53;100291.53;1572922;90;21504;-58
2023/03/23 02:55:32;;;;;;;54.00;27.02;;;;;;;5.99;84.59;100293.23;1595394;90;21193;-57
2023/03/23 02:58:02;;;;;;;52.15;27.07;;;;;;;6.01;84.68;100296.11;1574997;90;21075;-58
2023/03/23 03:00:32;;;;;;;51.20;26.00;;;;;;;6.02;84.62;100293.73;1573365;90;21502;-57
2023/03/23 03:03:02;;;;;;;49.58;26.80;;;;;;;6.03;84.62;100298.16;1607293;88;21074;-57
2023/03/23 03:05:47;;;;;;;46.28;25.90;;;;;;;6.04;84.71;100295.77;1607479;88;21039;-59
2023/03/23 03:08:40;;;;;;;46.50;27.25;;;;;;;6.07;84.76;100293.73;1628462;87;21426;-58
2023/03/23 03:11:13;;;;;;;54.75;28.38;;;;;;;6.11;84.79;100295.09;1628452;88;21156;-58
2023/03/23 03:14:10;;;;;;;52.25;28.30;;;;;;;6.12;84.63;100292.70;1628614;88;21094;-58
2023/03/23 03:17:05;;;;;;;49.58;25.92;;;;;;;6.13;84.52;100298.48;1664569;84;21104;-58
2023/03/23 03:19:36;;;;;;;47.20;25.97;;;;;;;6.17;84.45;100302.56;1699369;84;21056;-58
2023/03/23 03:22:05;;;;;;;49.93;27.40;;;;;;;6.16;84.38;100299.50;1699082;84;21503;-58
2023/03/23 03:24:37;;;;;;;55.25;27.87;;;;;;;6.17;84.42;100295.25;1737136;80;21028;-58
2023/03/23 03:27:06;;;;;;;49.27;27.73;;;;;;;6.20;84.39;100298.14;1782729;80;21043;-57
2023/03/23 03:29:41;;;;;;;54.30;28.42;;;;;;;6.18;84.37;100292.87;1782014;80;21008;-59
2023/03/23 03:32:12;;;;;;;50.38;25.75;;;;;;;6.19;84.36;100291.00;1728475;82;21127;-59
2023/03/23 03:34:42;;;;;;;49.73;26.93;;;;;;;6.19;84.31;100288.27;1705028;83;21600;-58
2023/03/23 03:37:11;;;;;;;48.80;26.65;;;;;;;6.22;84.35;100289.29;1704583;83;21043;-58
2023/03/23 03:39:39;;;;;;;54.18;27.37;;;;;;;6.25;84.39;100291.66;1681124;83;21086;-57
2023/03/23 03:42:08;;;;;;;50.88;28.27;;;;;;;6.28;84.39;100280.44;1728523;83;21111;-58
2023/03/23 03:44:38;;;;;;;50.15;27.27;;;;;;;6.31;84.33;100284.17;1704756;83;21043;-58
2023/03/23 03:47:06;;;;;;;48.13;24.63;;;;;;;6.33;84.29;100291.65;1728897;83;21036;-58
2023/03/23 03:49:35;;;;;;;47.88;25.70;;;;;;;6.35;84.23;100287.73;1728695;83;21032;-59
2023/03/23 03:52:05;;;;;;;49.35;24.85;;;;;;;6.36;84.08;100284.50;1704845;83;21000;-58
2023/03/23 03:54:36;;;;;;;47.48;25.52;;;;;;;6.37;84.09;100284.84;1642383;87;21096;-58
2023/03/23 03:57:06;;;;;;;44.70;24.47;;;;;;;6.36;84.06;100285.35;1656672;84;21055;-58
2023/03/23 03:59:45;;;;;;;46.65;26.07;;;;;;;6.38;84.10;100281.61;1635281;86;21518;-58
2023/03/23 04:02:19;;;;;;;43.05;25.20;;;;;;;6.38;84.11;100282.45;1635423;86;21077;-58
2023/03/23 04:04:51;;;;;;;47.48;25.10;;;;;;;6.42;84.07;100288.40;1635511;86;21108;-58
2023/03/23 04:07:21;;;;;;;48.23;25.70;;;;;;;6.40;83.95;100288.58;1635420;88;21090;-57
2023/03/23 04:09:51;;;;;;;48.83;25.48;;;;;;;6.39;83.88;100286.02;1635053;88;21054;-58
2023/03/23 04:12:21;;;;;;;46.33;25.35;;;;;;;6.39;83.96;100295.55;1635466;88;21083;-59
2023/03/23 04:14:58;;;;;;;49.85;26.10;;;;;;;6.38;83.97;100293.85;1635420;88;21102;-59
2023/03/23 04:17:32;;;;;;;44.58;25.17;;;;;;;6.36;84.00;100299.47;1635378;88;21039;-59
2023/03/23 04:20:06;;;;;;;46.65;25.97;;;;;;;6.36;84.11;100298.95;1635239;88;21126;-60
2023/03/23 04:22:31;;;;;;;48.25;25.08;;;;;;;6.38;84.24;100297.42;1585017;89;21043;-58
2023/03/23 04:25:05;;;;;;;50.15;25.45;;;;;;;6.41;84.33;100294.87;1600321;85;21210;-59
2023/03/23 04:27:31;;;;;;;50.17;26.17;;;;;;;6.44;84.33;100292.64;1685608;85;21464;-59
2023/03/23 04:30:02;;;;;;;49.35;25.60;;;;;;;6.46;84.28;100293.32;1704403;81;21044;-59
2023/03/23 04:32:40;;;;;;;58.38;28.52;;;;;;;6.47;84.29;100295.53;1693459;84;21106;-59
2023/03/23 04:35:10;;;;;;;51.92;28.12;;;;;;;6.48;84.20;100291.78;1739015;81;21192;-58
2023/03/23 04:37:41;;;;;;;52.00;28.15;;;;;;;6.47;84.13;100289.58;1738647;82;21114;-59
2023/03/23 04:40:14;;;;;;;58.00;29.67;;;;;;;6.46;83.91;100300.12;1703749;82;21047;-57
2023/03/23 04:42:45;;;;;;;57.80;29.60;;;;;;;6.44;83.83;100291.28;1756586;82;20999;-58
2023/03/23 04:45:28;;;;;;;51.75;28.20;;;;;;;6.45;83.79;100294.34;1746542;82;21038;-58
2023/03/23 04:47:58;;;;;;;63.05;29.45;;;;;;;6.48;83.70;100294.00;1719433;82;21110;-57
2023/03/23 04:50:40;;;;;;;58.40;29.98;;;;;;;6.51;83.63;100295.05;1742879;82;21463;-58
2023/03/23 04:53:10;;;;;;;60.43;30.02;;;;;;;6.54;83.64;100297.92;1742661;81;21022;-57
2023/03/23 04:55:42;;;;;;;54.88;30.60;;;;;;;6.57;83.70;100295.70;1718403;82;21071;-57
2023/03/23 04:58:15;;;;;;;58.45;31.23;;;;;;;6.62;83.70;100292.45;1717859;82;21071;-57
2023/03/23 05:00:53;;;;;;;56.25;31.70;;;;;;;6.66;83.73;100296.02;1719047;82;21062;-58
2023/03/23 05:03:24;;;;;;;58.30;30.97;;;;;;;6.70;83.67;100295.16;1680106;84;21507;-58
2023/03/23 05:05:56;;;;;;;56.85;30.65;;;;;;;6.75;83.68;100300.08;1652869;87;21032;-58
2023/03/23 05:08:26;;;;;;;62.78;30.05;;;;;;;6.82;83.78;100303.80;1652878;87;21078;-59
2023/03/23 05:10:57;;;;;;;54.80;28.85;;;;;;;6.89;83.72;100308.36;1639616;87;21167;-57
2023/03/23 05:13:28;;;;;;;60.25;30.90;;;;;;;6.96;83.74;100299.81;1639314;86;21089;-58
2023/03/23 05:16:04;;;;;;;61.45;30.77;;;;;;;7.04;83.73;100296.20;1616485;87;21057;-59
2023/03/23 05:18:33;;;;;;;60.28;30.00;;;;;;;7.12;83.71;100300.77;1637714;87;21093;-58
2023/03/23 05:21:05;;;;;;;56.90;29.67;;;;;;;7.16;83.66;100302.14;1637736;86;21109;-57
2023/03/23 05:23:35;;;;;;;56.33;28.10;;;;;;;7.23;83.73;100297.67;1637668;87;21081;-56
2023/03/23 05:26:06;;;;;;;56.20;28.67;;;;;;;7.28;83.69;100301.56;1604647;89;21098;-58
2023/03/23 05:28:37;;;;;;;48.05;26.80;;;;;;;7.36;83.68;100297.94;1604582;88;21150;-58
2023/03/23 05:31:13;;;;;;;47.10;26.02;;;;;;;7.42;83.56;100293.64;1630370;87;21449;-59
2023/03/23 05:33:44;;;;;;;49.48;25.68;;;;;;;7.48;83.48;100295.65;1663666;85;21511;-58
2023/03/23 05:36:15;;;;;;;48.75;26.02;;;;;;;7.53;83.33;100302.26;1688937;83;21035;-58
2023/03/23 05:38:52;;;;;;;45.10;26.25;;;;;;;7.58;83.20;100303.08;1694642;83;21086;-59
2023/03/23 05:41:22;;;;;;;51.95;28.10;;;;;;;7.63;83.09;100305.59;1695412;84;21450;-58
2023/03/23 05:43:52;;;;;;;50.15;26.35;;;;;;;7.68;82.94;100309.14;1695271;84;21466;-58
2023/03/23 05:46:22;;;;;;;56.30;29.05;;;;;;;7.72;82.71;100308.27;1695246;83;21047;-56
2023/03/23 05:48:53;;;;;;;50.78;28.75;;;;;;;7.76;82.63;100304.99;1695136;84;21532;-58
2023/03/23 05:51:24;;;;;;;48.05;25.92;;;;;;;7.81;82.50;100307.20;1716168;83;21044;-58
2023/03/23 05:53:54;;;;;;;49.95;27.27;;;;;;;7.85;82.36;100305.30;1692932;83;21110;-58
2023/03/23 05:56:24;;;;;;;52.73;27.77;;;;;;;7.90;82.28;100304.75;1721256;83;21039;-57
2023/03/23 05:59:13;;;;;;;53.08;27.67;;;;;;;7.95;82.16;100309.98;1740620;81;21039;-58
2023/03/23 06:01:43;;;;;;;48.60;26.68;;;;;;;7.99;82.06;100302.28;1690991;85;21091;-57
2023/03/23 06:04:14;;;;;;;53.90;27.27;;;;;;;8.04;81.98;100302.58;1691030;83;21118;-59
2023/03/23 06:06:45;;;;;;;60.00;26.27;;;;;;;8.12;81.83;100308.48;1649947;85;21041;-56
2023/03/23 06:09:13;;;;;;;49.33;26.25;;;;;;;8.17;81.75;100310.14;1642091;86;21167;-58
2023/03/23 06:11:48;;;;;;;49.35;25.60;;;;;;;8.27;81.69;100312.09;1610843;87;21100;-58
2023/03/23 06:14:26;;;;;;;59.50;27.93;;;;;;;8.35;81.44;100313.93;1619138;87;21517;-58
2023/03/23 06:16:55;;;;;;;47.73;26.45;;;;;;;8.40;81.25;100315.06;1681158;84;21067;-59
2023/03/23 06:19:26;;;;;;;55.40;26.60;;;;;;;8.47;81.09;100315.20;1717170;83;20991;-59
2023/03/23 06:22:02;;;;;;;56.45;26.15;;;;;;;8.52;80.98;100319.07;1716395;83;21039;-60
2023/03/23 06:24:48;;;;;;;48.20;24.70;;;;;;;8.62;80.86;100311.13;1717501;83;21066;-58
2023/03/23 06:27:19;;;;;;;56.63;25.05;;;;;;;8.72;80.75;100307.59;1717319;83;21090;-61
2023/03/23 06:29:48;;;;;;;46.18;23.55;;;;;;;8.83;80.57;100312.07;1717184;82;21534;-59
2023/03/23 06:32:16;;;;;;;47.23;23.80;;;;;;;8.96;80.36;100314.14;1689363;84;21155;-59
2023/03/23 06:34:46;;;;;;;36.38;20.57;;;;;;;9.09;80.12;100317.56;1681574;85;21058;-58
2023/03/23 06:37:19;;;;;;;44.38;20.80;;;;;;;9.23;79.77;100312.63;1655949;87;21772;-58
2023/03/23 06:39:52;;;;;;;49.03;20.70;;;;;;;9.40;79.23;100314.63;1654819;87;21508;-60
2023/03/23 06:42:25;;;;;;;40.67;19.60;;;;;;;9.53;78.61;100322.98;1654661;87;21514;-60
2023/03/23 06:44:57;;;;;;;34.45;17.60;;;;;;;9.66;78.06;100323.12;1625795;87;21059;-59
2023/03/23 06:47:29;;;;;;;41.90;18.70;;;;;;;9.78;77.19;100328.97;1602662;89;21165;-57
2023/03/23 06:49:58;;;;;;;36.30;17.75;;;;;;;9.89;76.51;100315.28;1582203;89;21083;-58
2023/03/23 06:52:28;;;;;;;30.32;17.52;;;;;;;9.99;75.96;100325.39;1602755;89;21171;-58
2023/03/23 06:54:57;;;;;;;38.53;17.30;;;;;;;10.11;75.25;100312.34;1602852;89;21515;-60
2023/03/23 06:57:26;;;;;;;34.05;17.57;;;;;;;10.21;74.64;100312.04;1602829;89;21185;-60
2023/03/23 06:59:54;;;;;;;46.60;17.48;;;;;;;10.31;74.27;100315.28;1582141;89;21513;-59
2023/03/23 07:02:25;;;;;;;38.70;17.05;;;;;;;10.38;73.81;100306.59;1609479;87;21088;-59
2023/03/23 07:04:54;;;;;;;30.10;16.15;;;;;;;10.47;73.47;100309.55;1618730;88;21115;-58
2023/03/23 07:07:24;;;;;;;37.53;16.87;;;;;;;10.57;72.80;100308.34;1506695;94;21202;-60
2023/03/23 07:09:55;;;;;;;35.30;17.25;;;;;;;10.66;72.40;100315.36;1500258;94;21095;-59
2023/03/23 07:12:27;;;;;;;29.45;17.40;;;;;;;10.74;72.05;100306.98;1534261;93;21124;-59
2023/03/23 07:14:55;;;;;;;26.15;16.00;;;;;;;10.82;71.67;100306.83;1536212;92;21116;-60
2023/03/23 07:17:24;;;;;;;29.95;15.38;;;;;;;10.91;71.33;100313.83;1536326;93;21662;-59
2023/03/23 07:20:11;;;;;;;33.05;15.58;;;;;;;11.01;70.98;100307.98;1534194;93;21155;-60
2023/03/23 07:22:39;;;;;;;42.40;17.82;;;;;;;11.14;70.57;100309.98;1570455;89;21501;-59
2023/03/23 07:25:12;;;;;;;30.23;18.00;;;;;;;11.25;69.97;100311.61;1586989;89;21089;-60
2023/03/23 07:27:46;;;;;;;31.75;18.20;;;;;;;11.34;69.56;100310.38;1587688;89;21053;-58
2023/03/23 07:30:15;;;;;;;38.67;18.02;;;;;;;11.44;69.06;100308.10;1583387;90;21094;-60
2023/03/23 07:32:45;;;;;;;36.85;17.02;;;;;;;11.52;68.69;100308.44;1603626;89;21144;-60
2023/03/23 07:35:13;;;;;;;36.73;17.23;;;;;;;11.59;68.39;100307.09;1680951;83;21594;-59
2023/03/23 07:37:59;;;;;;;29.92;16.77;;;;;;;11.66;68.07;100303.31;1719146;83;21509;-61
2023/03/23 07:40:28;;;;;;;37.08;17.10;;;;;;;11.77;67.61;100306.53;1702482;83;21020;-59
2023/03/23 07:42:58;;;;;;;33.67;15.83;;;;;;;11.85;67.35;100306.38;1649041;85;21353;-61
2023/03/23 07:45:28;;;;;;;36.05;17.52;;;;;;;11.92;67.05;100302.58;1647762;87;21080;-60
2023/03/23 07:47:58;;;;;;;39.85;18.50;;;;;;;12.00;66.76;100301.00;1570954;91;21551;-60
2023/03/23 07:50:27;;;;;;;29.37;16.70;;;;;;;12.09;66.20;100298.91;1571092;90;21086;-59
2023/03/23 07:52:57;;;;;;;32.42;18.62;;;;;;;12.16;66.07;100298.91;1571119;91;21690;-59
2023/03/23 07:55:28;;;;;;;33.80;17.62;;;;;;;12.23;65.75;100289.61;1575796;90;21124;-61
2023/03/23 07:57:58;;;;;;;32.60;18.10;;;;;;;12.33;65.50;100291.94;1575328;90;21565;-60
2023/03/23 08:00:29;;;;;;;30.37;17.57;;;;;;;12.44;65.25;100292.70;1575835;91;21110;-58
2023/03/23 08:02:59;;;;;;;36.83;18.10;;;;;;;12.56;64.93;100290.15;1575909;91;21606;-60
2023/03/23 08:05:33;;;;;;;31.00;18.48;;;;;;;12.74;64.68;100288.95;1575832;91;21536;-61
2023/03/23 08:08:06;;;;;;;35.65;17.92;;;;;;;12.92;64.08;100290.50;1582501;88;21172;-60
2023/03/23 08:10:37;;;;;;;38.45;21.02;;;;;;;13.12;63.55;100289.09;1576470;88;21155;-60
2023/03/23 08:13:09;;;;;;;34.23;19.00;;;;;;;13.28;62.96;100292.77;1671956;83;21023;-59
2023/03/23 08:15:48;;;;;;;32.38;19.02;;;;;;;13.43;62.38;100289.73;1721333;83;21024;-60
2023/03/23 08:18:37;;;;;;;32.20;18.60;;;;;;;13.53;61.76;100292.86;1664546;86;21076;-60
2023/03/23 08:21:10;;;;;;;28.47;18.17;;;;;;;13.61;61.20;100281.59;1645143;86;21501;-58
2023/03/23 08:23:42;;;;;;;33.02;17.42;;;;;;;13.71;61.13;100292.16;1667431;86;21066;-59
2023/03/23 08:26:30;;;;;;;27.32;17.23;;;;;;;13.82;60.18;100272.17;1623954;88;21084;-60
2023/03/23 08:29:12;;;;;;;27.22;17.15;;;;;;;13.93;59.96;100278.88;1591910;89;21062;-60
2023/03/23 08:31:57;;;;;;;30.97;17.77;;;;;;;14.06;59.30;100281.53;1618109;88;21083;-60
2023/03/23 08:34:42;;;;;;;33.90;17.77;;;;;;;14.13;58.97;100274.59;1607119;87;21112;-59
2023/03/23 08:37:16;;;;;;;35.95;19.00;;;;;;;14.19;58.71;100277.83;1624038;88;21510;-60
2023/03/23 08:39:54;;;;;;;33.80;18.25;;;;;;;14.22;58.55;100276.00;1604697;88;21131;-60
2023/03/23 08:42:34;;;;;;;35.17;19.87;;;;;;;14.20;58.42;100269.34;1619819;85;21577;-59
2023/03/23 08:45:07;;;;;;;34.58;20.32;;;;;;;14.21;58.53;100271.56;1692235;85;21080;-60
2023/03/23 08:47:37;;;;;;;30.25;17.82;;;;;;;14.23;58.52;100262.00;1728532;83;21032;-61
2023/03/23 08:50:14;;;;;;;32.73;18.52;;;;;;;14.27;58.44;100267.37;1729427;83;21091;-59
2023/03/23 08:52:51;;;;;;;27.58;17.37;;;;;;;14.35;58.30;100258.00;1707465;83;21460;-60
2023/03/23 08:55:22;;;;;;;30.77;18.35;;;;;;;14.40;57.78;100259.55;1676311;84;21025;-60
2023/03/23 08:57:53;;;;;;;31.77;17.52;;;;;;;14.41;57.80;100257.64;1671619;84;21500;-60
2023/03/23 09:00:27;;;;;;;31.93;17.32;;;;;;;14.44;57.98;100259.97;1718757;83;21027;-61
2023/03/23 09:02:58;;;;;;;23.20;15.50;;;;;;;14.49;57.86;100257.37;1701003;83;21055;-61
2023/03/23 09:05:28;;;;;;;28.30;16.32;;;;;;;14.53;57.46;100257.23;1671046;84;21028;-61
2023/03/23 09:08:12;;;;;;;26.27;15.83;;;;;;;14.58;57.26;100254.64;1623540;83;21171;-62
2023/03/23 09:10:42;;;;;;;23.80;14.83;;;;;;;14.61;56.99;100255.56;1672734;85;21104;-63
2023/03/23 09:13:11;;;;;;;25.62;14.65;;;;;;;14.63;56.52;100253.95;1695273;84;21023;-63
2023/03/23 09:15:39;;;;;;;22.42;14.15;;;;;;;14.65;56.30;100248.52;1699514;84;21035;-62
2023/03/23 09:18:08;;;;;;;28.30;16.20;;;;;;;14.68;56.26;100250.81;1672688;86;21542;-64
2023/03/23 09:20:37;;;;;;;26.73;17.50;;;;;;;14.73;56.40;100248.22;1672943;86;21111;-64
2023/03/23 09:23:06;;;;;;;28.80;17.70;;;;;;;14.76;56.51;100250.52;1672802;86;21550;-63
2023/03/23 09:25:35;;;;;;;32.60;16.52;;;;;;;14.75;56.60;100251.59;1672789;86;21044;-61
2023/03/23 09:28:04;;;;;;;26.00;15.53;;;;;;;14.72;56.69;100240.17;1676431;84;21111;-63
2023/03/23 09:30:35;;;;;;;28.52;17.15;;;;;;;14.74;56.68;100241.63;1655738;87;21094;-63
2023/03/23 09:33:05;;;;;;;24.82;14.98;;;;;;;14.79;56.43;100234.05;1677721;84;21099;-63
2023/03/23 09:35:34;;;;;;;24.98;13.68;;;;;;;14.84;56.33;100229.52;1662638;85;21104;-64
2023/03/23 09:38:05;;;;;;;21.68;13.40;;;;;;;14.94;55.68;100234.50;1661275;85;21080;-63
2023/03/23 09:41:00;;;;;;;20.72;13.03;;;;;;;15.04;54.59;100227.94;1661175;82;21084;-62
2023/03/23 09:43:55;;;;;;;19.60;12.28;;;;;;;15.11;54.36;100226.48;1732755;82;21071;-63
2023/03/23 09:46:56;;;;;;;23.83;12.98;;;;;;;15.16;54.05;100228.84;1733101;82;21024;-63
2023/03/23 09:49:43;;;;;;;21.12;13.38;;;;;;;15.23;54.28;100230.14;1751665;82;21059;-64
2023/03/23 09:52:17;;;;;;;18.90;12.58;;;;;;;15.30;54.23;100219.01;1732744;82;21617;-63
2023/03/23 09:54:50;;;;;;;18.12;12.82;;;;;;;15.33;53.67;100213.87;1751505;82;21087;-65
2023/03/23 09:57:27;;;;;;;18.65;12.53;;;;;;;15.37;53.29;100218.38;1670980;85;21518;-66
2023/03/23 10:00:17;;;;;;;19.52;12.78;;;;;;;15.37;53.33;100217.00;1671144;84;21171;-63
2023/03/23 10:03:15;;;;;;;20.77;12.78;;;;;;;15.36;53.41;100212.55;1652529;84;21176;-63
2023/03/23 10:05:49;;;;;;;19.23;12.58;;;;;;;15.36;53.47;100209.25;1674587;84;21052;-64
2023/03/23 10:08:29;;;;;;;21.60;12.55;;;;;;;15.35;53.45;100202.05;1663026;86;21052;-66
2023/03/23 10:11:19;;;;;;;17.77;12.07;;;;;;;15.33;53.42;100195.92;1662993;86;21099;-64
2023/03/23 10:14:18;;;;;;;21.27;12.37;;;;;;;15.35;54.27;100201.20;1639367;86;21087;-64
2023/03/23 10:16:57;;;;;;;19.62;12.65;;;;;;;15.35;54.19;100202.05;1639627;86;21547;-65
2023/03/23 10:19:46;;;;;;;21.73;12.80;;;;;;;15.33;54.29;100191.78;1623715;88;21527;-63
2023/03/23 10:22:17;;;;;;;20.20;12.07;;;;;;;15.35;53.97;100195.15;1624016;88;21088;-66
2023/03/23 10:25:02;;;;;;;19.65;11.83;;;;;;;15.34;54.31;100187.95;1623717;88;21559;-65
2023/03/23 10:27:55;;;;;;;20.57;12.10;;;;;;;15.35;54.30;100182.72;1609561;85;21543;-64
2023/03/23 10:30:35;;;;;;;20.00;12.00;;;;;;;15.35;53.84;100184.11;1679116;85;21051;-64
2023/03/23 10:33:15;;;;;;;19.00;12.23;;;;;;;15.37;53.58;100176.43;1690751;84;21463;-63
2023/03/23 10:36:12;;;;;;;27.00;12.63;;;;;;;15.41;53.40;100168.52;1681183;84;21103;-64
2023/03/23 10:38:58;;;;;;;21.55;12.35;;;;;;;15.49;53.06;100171.79;1644692;86;21528;-63
2023/03/23 10:41:26;;;;;;;18.87;12.37;;;;;;;15.60;53.12;100172.93;1645020;87;21090;-65
2023/03/23 10:43:56;;;;;;;20.72;11.83;;;;;;;15.67;52.33;100161.27;1644836;87;21458;-63
2023/03/23 10:46:41;;;;;;;22.90;11.88;;;;;;;15.71;52.53;100166.63;1645113;87;21117;-66
2023/03/23 10:49:12;;;;;;;18.67;11.20;;;;;;;15.77;52.50;100159.31;1642001;86;21138;-64
2023/03/23 10:51:44;;;;;;;18.90;12.25;;;;;;;15.82;52.68;100157.52;1671483;86;21084;-64
2023/03/23 10:54:19;;;;;;;19.45;11.53;;;;;;;15.87;51.96;100158.18;1671932;86;21092;-65
2023/03/23 10:56:48;;;;;;;17.35;11.55;;;;;;;15.93;52.24;100149.48;1646235;87;21074;-63
2023/03/23 10:59:28;;;;;;;18.25;10.82;;;;;;;15.96;51.39;100148.46;1647254;86;21086;-65
2023/03/23 11:02:02;;;;;;;24.50;11.45;;;;;;;15.98;51.45;100144.08;1594046;90;21054;-65
2023/03/23 11:04:32;;;;;;;20.20;12.03;;;;;;;16.00;50.50;100144.13;1591130;88;21571;-65
2023/03/23 11:07:02;;;;;;;17.52;11.10;;;;;;;16.00;50.29;100146.90;1601293;89;21139;-67
2023/03/23 11:09:44;;;;;;;18.10;11.18;;;;;;;16.01;49.81;100143.05;1600218;87;21075;-66
2023/03/23 11:12:19;;;;;;;18.52;10.28;;;;;;;16.02;49.40;100141.97;1650399;87;21493;-64
2023/03/23 11:14:48;;;;;;;17.00;10.53;;;;;;;16.05;48.59;100138.73;1651186;87;21047;-65
2023/03/23 11:17:24;;;;;;;15.72;10.15;;;;;;;16.07;48.47;100134.34;1651378;87;21051;-64
2023/03/23 11:19:54;;;;;;;18.55;10.40;;;;;;;16.09;48.12;100132.18;1651158;87;21082;-65
2023/03/23 11:22:31;;;;;;;18.42;11.00;;;;;;;16.09;48.37;100130.26;1701907;83;21059;-65
2023/03/23 11:25:05;;;;;;;18.80;10.30;;;;;;;16.12;48.67;100122.87;1707298;84;21699;-64
2023/03/23 11:27:35;;;;;;;17.85;10.38;;;;;;;16.20;48.55;100128.58;1651084;87;21138;-64
2023/03/23 11:30:23;;;;;;;17.95;10.53;;;;;;;16.27;48.47;100121.03;1621374;87;21119;-65
2023/03/23 11:32:52;;;;;;;22.13;11.10;;;;;;;16.32;47.84;100121.14;1608776;88;21066;-63
2023/03/23 11:35:26;;;;;;;18.27;10.58;;;;;;;16.38;47.85;100122.09;1599892;89;21137;-63
2023/03/23 11:37:58;;;;;;;17.45;10.45;;;;;;;16.43;47.95;100115.30;1657048;84;21162;-65
2023/03/23 11:40:31;;;;;;;19.73;11.05;;;;;;;16.48;47.77;100114.86;1683848;84;21031;-64
2023/03/23 11:43:15;;;;;;;18.50;11.05;;;;;;;16.50;47.44;100111.85;1683611;84;21512;-64
2023/03/23 11:45:55;;;;;;;17.80;9.98;;;;;;;16.51;47.76;100101.09;1683593;84;21467;-65